Time;durP1;ratioP1;P1;durP2;ratioP2;P2;SDS_P1;SDS_P2;PMS_P1;PMS_P2;Temp;Humidity;BMP_temperature;BMP_pressure;BME280_temperature;BME280_humidity;BME280_pressure;Samples;Min_cycle;Max_cycle;Signal;HPM_P1;HPM_P2
2023/08/06 00:00:38;;;;;;;1.40;1.30;;;;;;;18.80;63.29;100521.72;5032098;27;97192;-52
2023/08/06 00:03:03;;;;;;;2.00;1.43;;;;;;;18.78;63.27;100521.50;5033709;27;96787;-53
2023/08/06 00:05:29;;;;;;;1.20;1.20;;;;;;;18.76;63.18;100512.97;5033886;27;97334;-53
2023/08/06 00:07:54;;;;;;;1.30;1.20;;;;;;;18.75;63.19;100515.00;5030311;27;109850;-52
2023/08/06 00:10:19;;;;;;;4.10;1.67;;;;;;;18.73;63.18;100511.28;5023469;27;96864;-52
2023/08/06 00:12:45;;;;;;;1.47;1.20;;;;;;;18.70;63.22;100507.53;5028896;27;97138;-52
2023/08/06 00:15:11;;;;;;;1.57;1.47;;;;;;;18.70;63.51;100511.06;5032383;27;97884;-52
2023/08/06 00:17:36;;;;;;;1.30;1.20;;;;;;;18.69;63.34;100506.81;5028355;27;96974;-54
2023/08/06 00:20:05;;;;;;;1.43;1.33;;;;;;;18.70;63.43;100515.91;5033482;27;97811;-54
2023/08/06 00:22:35;;;;;;;1.07;1.07;;;;;;;18.71;63.59;100517.41;5033287;27;97076;-54
2023/08/06 00:25:02;;;;;;;1.50;1.13;;;;;;;18.71;63.40;100511.81;5030989;27;97402;-54
2023/08/06 00:27:27;;;;;;;1.70;1.60;;;;;;;18.72;63.67;100521.66;5033126;27;96804;-55
2023/08/06 00:29:53;;;;;;;1.50;1.40;;;;;;;18.70;63.36;100518.69;5036151;27;96766;-54
2023/08/06 00:32:18;;;;;;;7.17;1.60;;;;;;;18.70;63.65;100518.69;5035496;27;97913;-53
2023/08/06 00:34:44;;;;;;;1.50;1.40;;;;;;;18.71;63.64;100517.41;5034372;27;96934;-51
2023/08/06 00:37:09;;;;;;;1.17;1.17;;;;;;;18.70;63.58;100518.69;5036461;27;97129;-53
2023/08/06 00:39:34;;;;;;;1.17;1.17;;;;;;;18.68;63.36;100521.28;5036276;27;97202;-53
2023/08/06 00:42:00;;;;;;;3.20;1.40;;;;;;;18.66;63.49;100518.31;5034578;27;98367;-54
2023/08/06 00:44:25;;;;;;;3.20;1.90;;;;;;;18.64;63.51;100509.75;5036184;27;109301;-53
2023/08/06 00:46:50;;;;;;;1.43;1.33;;;;;;;18.62;63.36;100495.63;5036321;27;97557;-53
2023/08/06 00:49:16;;;;;;;1.60;1.50;;;;;;;18.59;63.47;100503.06;5034055;27;98625;-52
2023/08/06 00:51:42;;;;;;;2.77;1.80;;;;;;;18.59;63.67;100499.50;5038416;27;97980;-55
2023/08/06 00:54:08;;;;;;;1.70;1.60;;;;;;;18.62;63.72;100495.63;5034378;27;96869;-52
2023/08/06 00:56:37;;;;;;;1.57;1.47;;;;;;;18.64;63.74;100498.59;5035419;27;96795;-55
2023/08/06 00:59:06;;;;;;;2.03;1.63;;;;;;;18.63;63.93;100489.50;5035948;27;97567;-52
2023/08/06 01:01:31;;;;;;;1.60;1.50;;;;;;;18.63;63.94;100494.34;5035090;27;97082;-53
2023/08/06 01:03:57;;;;;;;2.90;1.77;;;;;;;18.64;64.00;100490.25;5038622;27;97340;-54
2023/08/06 01:06:44;;;;;;;1.37;1.30;;;;;;;18.64;64.37;100481.88;5035150;27;97368;-54
2023/08/06 01:09:36;;;;;;;1.77;1.67;;;;;;;18.66;64.32;100480.03;5035778;27;97364;-55
2023/08/06 01:12:15;;;;;;;1.57;1.47;;;;;;;18.67;64.12;100469.66;5035299;27;97427;-53
2023/08/06 01:14:40;;;;;;;1.90;1.80;;;;;;;18.66;64.20;100468.91;5034303;27;97176;-52
2023/08/06 01:17:07;;;;;;;2.07;1.70;;;;;;;18.66;64.06;100462.56;5036483;27;97239;-52
2023/08/06 01:19:32;;;;;;;2.63;1.63;;;;;;;18.67;63.94;100458.50;5035095;27;96802;-53
2023/08/06 01:21:58;;;;;;;1.70;1.60;;;;;;;18.65;63.71;100455.53;5036471;27;101456;-51
2023/08/06 01:24:23;;;;;;;2.27;1.97;;;;;;;18.65;64.04;100461.81;5036782;27;106317;-52
2023/08/06 01:26:57;;;;;;;2.60;1.87;;;;;;;18.65;64.23;100461.09;5035870;27;97085;-55
2023/08/06 01:29:31;;;;;;;2.63;1.77;;;;;;;18.68;64.36;100462.75;5034561;27;96986;-55
2023/08/06 01:31:58;;;;;;;1.77;1.67;;;;;;;18.67;64.06;100452.94;5035592;27;96994;-53
2023/08/06 01:34:30;;;;;;;2.70;1.90;;;;;;;18.65;64.11;100450.66;5033233;27;97050;-55
2023/08/06 01:36:56;;;;;;;2.80;2.00;;;;;;;18.61;64.02;100450.28;5035010;27;97280;-52
2023/08/06 01:39:22;;;;;;;3.10;1.90;;;;;;;18.61;64.05;100452.31;5035587;27;97353;-53
2023/08/06 01:41:50;;;;;;;1.90;1.80;;;;;;;18.61;64.25;100447.50;5036984;27;97524;-55
2023/08/06 01:44:16;;;;;;;1.77;1.67;;;;;;;18.63;64.22;100446.97;5035054;27;107975;-53
2023/08/06 01:46:41;;;;;;;2.20;2.10;;;;;;;18.63;64.22;100442.13;5033136;27;97191;-52
2023/08/06 01:49:07;;;;;;;2.70;1.97;;;;;;;18.64;64.11;100431.72;5035191;27;97096;-52
2023/08/06 01:51:32;;;;;;;2.00;1.90;;;;;;;18.63;64.06;100424.69;5033821;27;97389;-52
2023/08/06 01:53:57;;;;;;;2.10;2.00;;;;;;;18.59;64.09;100413.88;5036593;27;97367;-52
2023/08/06 01:56:23;;;;;;;2.37;2.17;;;;;;;18.56;64.22;100417.78;5035376;27;97271;-52
2023/08/06 01:58:48;;;;;;;2.10;1.90;;;;;;;18.55;64.33;100409.97;5032520;27;97185;-52
2023/08/06 02:01:13;;;;;;;2.50;2.37;;;;;;;18.56;64.22;100403.09;5036470;27;97578;-52
2023/08/06 02:03:39;;;;;;;3.10;2.40;;;;;;;18.57;64.48;100404.59;5033306;27;97392;-52
2023/08/06 02:06:04;;;;;;;2.30;2.20;;;;;;;18.57;64.47;100399.75;5034184;27;98196;-52
2023/08/06 02:08:29;;;;;;;2.50;2.30;;;;;;;18.55;64.51;100405.16;5035985;27;97485;-53
2023/08/06 02:10:55;;;;;;;2.70;2.50;;;;;;;18.56;64.65;100409.44;5032935;27;96807;-52
2023/08/06 02:13:20;;;;;;;2.97;2.77;;;;;;;18.57;64.58;100410.16;5032631;27;104680;-53
2023/08/06 02:15:48;;;;;;;2.53;2.40;;;;;;;18.58;64.66;100411.66;5032384;27;97413;-53
2023/08/06 02:18:17;;;;;;;3.13;2.80;;;;;;;18.59;64.81;100407.56;5034415;27;96767;-53
2023/08/06 02:20:43;;;;;;;2.57;2.37;;;;;;;18.58;64.73;100401.25;5035016;27;97365;-51
2023/08/06 02:23:09;;;;;;;2.53;2.43;;;;;;;18.57;64.64;100405.34;5036317;27;97281;-53
2023/08/06 02:25:34;;;;;;;4.20;2.50;;;;;;;18.56;64.63;100400.31;5035158;27;96831;-52
2023/08/06 02:28:00;;;;;;;3.80;2.47;;;;;;;18.56;64.72;100406.66;5034963;27;96797;-52
2023/08/06 02:30:25;;;;;;;2.90;2.70;;;;;;;18.56;64.88;100397.53;5034006;27;96720;-53
2023/08/06 02:32:50;;;;;;;3.73;2.70;;;;;;;18.55;64.76;100401.59;5032602;27;97686;-53
2023/08/06 02:35:16;;;;;;;2.87;2.67;;;;;;;18.56;64.74;100398.28;5033837;27;96803;-52
2023/08/06 02:37:41;;;;;;;5.40;3.27;;;;;;;18.57;64.70;100399.75;5033708;27;97297;-53
2023/08/06 02:40:07;;;;;;;2.63;2.43;;;;;;;18.58;64.68;100397.72;5032442;27;97311;-53
2023/08/06 02:42:32;;;;;;;2.77;2.57;;;;;;;18.56;64.77;100389.94;5033263;27;97242;-53
2023/08/06 02:44:58;;;;;;;3.83;2.50;;;;;;;18.56;64.88;100386.41;5033346;27;103696;-52
2023/08/06 02:47:23;;;;;;;2.97;2.77;;;;;;;18.55;64.79;100379.31;5032749;27;97103;-53
2023/08/06 02:49:49;;;;;;;3.97;2.80;;;;;;;18.55;65.05;100380.06;5034274;27;97094;-53
2023/08/06 02:52:14;;;;;;;4.00;3.20;;;;;;;18.55;64.86;100391.22;5031057;27;97318;-52
2023/08/06 02:54:39;;;;;;;2.37;2.27;;;;;;;18.55;64.88;100390.47;5029043;27;97305;-53
2023/08/06 02:57:05;;;;;;;5.17;2.60;;;;;;;18.54;64.88;100395.28;5035115;27;96774;-52
2023/08/06 02:59:31;;;;;;;2.40;2.30;;;;;;;18.52;64.88;100386.00;5035558;27;97073;-53
2023/08/06 03:01:56;;;;;;;2.20;2.10;;;;;;;18.52;64.88;100378.38;5035197;27;97495;-53
2023/08/06 03:04:22;;;;;;;2.50;2.33;;;;;;;18.51;64.84;100379.69;5035259;27;110697;-53
2023/08/06 03:06:50;;;;;;;2.27;2.17;;;;;;;18.50;65.03;100375.41;5033715;27;96648;-52
2023/08/06 03:09:15;;;;;;;2.63;2.43;;;;;;;18.49;65.19;100368.38;5032434;27;96784;-52
2023/08/06 03:11:40;;;;;;;2.60;2.40;;;;;;;18.51;65.12;100368.56;5032611;27;97232;-52
2023/08/06 03:14:06;;;;;;;2.17;1.97;;;;;;;18.52;64.98;100363.72;5032333;27;97262;-52
2023/08/06 03:16:31;;;;;;;2.33;2.23;;;;;;;18.52;65.14;100358.16;5034807;27;97702;-52
2023/08/06 03:18:56;;;;;;;2.50;2.30;;;;;;;18.52;64.99;100358.16;5035511;27;96732;-52
2023/08/06 03:21:21;;;;;;;2.60;2.40;;;;;;;18.51;65.17;100357.41;5034011;27;98914;-52
2023/08/06 03:23:48;;;;;;;2.77;2.57;;;;;;;18.49;64.98;100360.00;5034367;27;98365;-52
2023/08/06 03:26:14;;;;;;;2.87;2.60;;;;;;;18.48;65.02;100357.75;5034726;27;96640;-52
2023/08/06 03:28:39;;;;;;;3.03;2.83;;;;;;;18.48;65.16;100352.19;5034327;27;96681;-52
2023/08/06 03:31:04;;;;;;;3.17;2.30;;;;;;;18.45;65.14;100342.91;5033659;27;96999;-52
2023/08/06 03:33:30;;;;;;;2.17;2.07;;;;;;;18.45;65.26;100342.16;5030527;27;96676;-52
2023/08/06 03:35:56;;;;;;;2.50;2.30;;;;;;;18.45;65.21;100344.94;5031637;27;96741;-52
2023/08/06 03:38:22;;;;;;;2.47;2.33;;;;;;;18.44;65.29;100343.44;5032876;27;97347;-52
2023/08/06 03:40:48;;;;;;;3.70;2.70;;;;;;;18.44;65.17;100335.84;5034529;27;97389;-52
2023/08/06 03:43:13;;;;;;;2.20;2.10;;;;;;;18.44;65.21;100343.44;5031328;27;97192;-52
2023/08/06 03:45:40;;;;;;;11.13;2.60;;;;;;;18.44;65.03;100333.06;5031086;27;97083;-53
2023/08/06 03:48:06;;;;;;;3.00;2.80;;;;;;;18.45;65.23;100336.59;5031988;27;97119;-52
2023/08/06 03:50:31;;;;;;;2.50;2.40;;;;;;;18.44;65.41;100330.28;5033263;27;97449;-56
2023/08/06 03:52:56;;;;;;;3.43;3.13;;;;;;;18.46;65.31;100324.88;5033023;27;108872;-53
2023/08/06 03:55:22;;;;;;;4.13;2.63;;;;;;;18.47;65.26;100331.97;5033309;27;101307;-52
2023/08/06 03:57:47;;;;;;;8.20;3.30;;;;;;;18.48;65.19;100339.00;5031575;27;96852;-52
2023/08/06 04:00:13;;;;;;;3.07;2.70;;;;;;;18.46;65.25;100332.50;5031325;27;97268;-52
2023/08/06 04:02:38;;;;;;;2.90;2.70;;;;;;;18.46;65.26;100332.50;5028676;27;97157;-52
2023/08/06 04:05:04;;;;;;;3.30;3.00;;;;;;;18.45;65.26;100325.44;5039184;27;96673;-52
2023/08/06 04:07:29;;;;;;;6.43;3.00;;;;;;;18.44;65.28;100316.34;5035989;27;97170;-52
2023/08/06 04:09:58;;;;;;;3.80;3.50;;;;;;;18.44;65.23;100315.56;5034247;27;97286;-52
2023/08/06 04:12:24;;;;;;;3.40;2.97;;;;;;;18.41;65.17;100316.69;5037154;27;97199;-53
2023/08/06 04:14:51;;;;;;;2.80;2.60;;;;;;;18.38;65.16;100309.44;5037002;27;97201;-53
2023/08/06 04:17:20;;;;;;;4.40;3.80;;;;;;;18.35;65.33;100310.53;5037411;27;97590;-52
2023/08/06 04:19:45;;;;;;;3.00;2.80;;;;;;;18.35;65.63;100316.84;5035291;27;97022;-53
2023/08/06 04:22:10;;;;;;;3.57;3.27;;;;;;;18.34;65.35;100309.81;5035063;27;97760;-53
2023/08/06 04:24:35;;;;;;;8.00;3.40;;;;;;;18.31;65.22;100321.31;5034000;27;99182;-53
2023/08/06 04:27:01;;;;;;;4.40;3.10;;;;;;;18.27;65.49;100318.88;5036761;27;96635;-52
2023/08/06 04:29:26;;;;;;;4.00;2.80;;;;;;;18.28;65.46;100322.44;5032447;27;97889;-53
2023/08/06 04:31:51;;;;;;;2.97;2.67;;;;;;;18.29;65.64;100318.31;5034083;27;112110;-53
2023/08/06 04:34:17;;;;;;;3.03;2.83;;;;;;;18.27;65.37;100315.34;5034952;27;96790;-52
2023/08/06 04:36:42;;;;;;;3.47;3.17;;;;;;;18.29;65.60;100323.91;5037161;27;97506;-52
2023/08/06 04:39:07;;;;;;;3.70;2.73;;;;;;;18.30;65.67;100323.38;5036603;27;97268;-52
2023/08/06 04:41:32;;;;;;;2.90;2.70;;;;;;;18.31;65.63;100312.94;5033747;27;104840;-53
2023/08/06 04:43:58;;;;;;;3.60;2.90;;;;;;;18.34;65.66;100311.84;5032781;27;102799;-53
2023/08/06 04:46:23;;;;;;;2.90;2.70;;;;;;;18.35;65.63;100319.63;5035016;27;96954;-53
2023/08/06 04:48:48;;;;;;;3.80;3.50;;;;;;;18.38;65.47;100321.31;5033476;27;111332;-53
2023/08/06 04:51:14;;;;;;;3.23;3.03;;;;;;;18.37;65.54;100319.81;5034899;27;97076;-53
2023/08/06 04:53:40;;;;;;;3.50;3.20;;;;;;;18.37;65.51;100319.81;5035845;27;96886;-52
2023/08/06 04:56:05;;;;;;;4.03;3.50;;;;;;;18.39;65.70;100322.81;5035041;27;97197;-52
2023/08/06 04:58:31;;;;;;;3.10;2.90;;;;;;;18.40;65.66;100321.50;5036696;27;97914;-53
2023/08/06 05:00:56;;;;;;;3.53;3.33;;;;;;;18.41;65.64;100330.63;5034460;27;100808;-52
2023/08/06 05:03:22;;;;;;;3.10;2.90;;;;;;;18.43;65.61;100334.34;5036373;27;97394;-52
2023/08/06 05:05:47;;;;;;;3.80;3.50;;;;;;;18.43;65.81;100328.78;5033467;27;97190;-52
2023/08/06 05:08:16;;;;;;;4.10;3.37;;;;;;;18.46;65.65;100332.50;5036626;27;97369;-52
2023/08/06 05:10:44;;;;;;;3.70;3.40;;;;;;;18.46;65.71;100330.47;5036689;27;97205;-52
2023/08/06 05:13:09;;;;;;;4.33;3.90;;;;;;;18.45;65.75;100336.59;5033400;27;97303;-52
2023/08/06 05:15:34;;;;;;;4.60;4.20;;;;;;;18.46;65.82;100329.72;5034841;27;96846;-52
2023/08/06 05:18:00;;;;;;;3.90;3.60;;;;;;;18.45;65.77;100323.41;5032578;27;109843;-52
2023/08/06 05:20:25;;;;;;;4.67;4.27;;;;;;;18.45;66.08;100325.44;5032411;27;97209;-52
2023/08/06 05:22:51;;;;;;;4.70;4.30;;;;;;;18.46;65.90;100326.91;5034726;27;97237;-52
2023/08/06 05:25:16;;;;;;;4.43;4.03;;;;;;;18.46;65.89;100327.66;5033767;27;97059;-52
2023/08/06 05:27:41;;;;;;;6.30;4.60;;;;;;;18.45;65.66;100319.88;5033701;27;97517;-52
2023/08/06 05:30:07;;;;;;;4.80;4.23;;;;;;;18.40;65.75;100312.41;5036143;27;97190;-52
2023/08/06 05:32:32;;;;;;;4.10;3.80;;;;;;;18.38;65.92;100312.22;5032598;27;97287;-52
2023/08/06 05:34:58;;;;;;;4.47;4.07;;;;;;;18.38;65.99;100315.00;5034527;27;100323;-52
2023/08/06 05:37:23;;;;;;;5.23;4.13;;;;;;;18.39;66.09;100308.16;5033544;27;110217;-52
2023/08/06 05:39:48;;;;;;;5.83;4.53;;;;;;;18.43;66.03;100316.88;5035805;27;103853;-52
2023/08/06 05:42:14;;;;;;;4.50;4.10;;;;;;;18.45;66.29;100315.06;5034529;27;97170;-52
2023/08/06 05:44:39;;;;;;;4.47;4.07;;;;;;;18.48;65.96;100307.59;5035094;27;97170;-52
2023/08/06 05:47:05;;;;;;;4.37;3.97;;;;;;;18.50;65.90;100310.59;5036522;27;97266;-52
2023/08/06 05:49:30;;;;;;;5.50;5.07;;;;;;;18.51;65.78;100306.50;5034217;27;97255;-52
2023/08/06 05:51:56;;;;;;;4.47;4.17;;;;;;;18.51;65.75;100301.69;5035094;27;98852;-52
2023/08/06 05:54:21;;;;;;;5.13;4.73;;;;;;;18.47;65.72;100309.66;5034946;27;97199;-52
2023/08/06 05:56:46;;;;;;;5.17;4.70;;;;;;;18.45;66.12;100303.91;5034520;27;98111;-52
2023/08/06 05:59:12;;;;;;;4.83;4.33;;;;;;;18.46;66.10;100304.63;5036027;27;108913;-52
2023/08/06 06:01:37;;;;;;;5.40;4.90;;;;;;;18.45;66.13;100305.94;5034803;27;97134;-52
2023/08/06 06:04:03;;;;;;;5.10;4.47;;;;;;;18.46;66.18;100313.00;5034205;27;97296;-52
2023/08/06 06:06:28;;;;;;;5.27;4.77;;;;;;;18.50;66.05;100322.47;5037215;27;98094;-52
2023/08/06 06:08:53;;;;;;;5.93;5.43;;;;;;;18.55;66.16;100323.59;5037127;27;97157;-52
2023/08/06 06:11:21;;;;;;;5.70;5.20;;;;;;;18.59;66.11;100323.97;5035459;27;97395;-52
2023/08/06 06:13:49;;;;;;;5.73;5.23;;;;;;;18.64;66.19;100314.69;5032222;27;96950;-52
2023/08/06 06:16:14;;;;;;;4.53;4.17;;;;;;;18.70;66.25;100318.78;5034358;27;97190;-52
2023/08/06 06:18:40;;;;;;;5.37;4.93;;;;;;;18.76;66.33;100315.06;5033227;27;97929;-52
2023/08/06 06:21:05;;;;;;;5.63;5.17;;;;;;;18.81;66.29;100314.88;5033504;27;97350;-52
2023/08/06 06:23:30;;;;;;;6.13;5.53;;;;;;;18.85;66.02;100311.72;5032210;27;97199;-52
2023/08/06 06:25:56;;;;;;;6.40;5.80;;;;;;;18.88;66.17;100319.72;5033143;27;96839;-54
2023/08/06 06:28:21;;;;;;;6.50;5.90;;;;;;;18.90;66.06;100311.53;5031886;27;97224;-53
2023/08/06 06:30:47;;;;;;;7.27;6.60;;;;;;;18.91;66.10;100310.25;5034984;27;97575;-53
2023/08/06 06:33:13;;;;;;;11.17;7.13;;;;;;;18.93;65.94;100313.22;5034584;27;96997;-53
2023/08/06 06:35:38;;;;;;;7.43;6.73;;;;;;;18.94;66.17;100314.69;5035908;27;97346;-52
2023/08/06 06:38:03;;;;;;;8.20;7.40;;;;;;;18.96;66.29;100316.94;5033015;27;103046;-53
2023/08/06 06:40:28;;;;;;;7.90;6.83;;;;;;;18.98;65.94;100315.06;5033053;27;96811;-53
2023/08/06 06:42:54;;;;;;;7.00;6.30;;;;;;;18.97;66.06;100308.00;5033636;27;97153;-53
2023/08/06 06:45:19;;;;;;;6.80;6.20;;;;;;;18.98;66.15;100312.25;5031872;27;97551;-52
2023/08/06 06:47:44;;;;;;;7.77;7.10;;;;;;;19.01;65.91;100318.78;5035521;27;96919;-52
2023/08/06 06:50:10;;;;;;;7.73;6.70;;;;;;;19.01;66.02;100313.19;5031285;27;101619;-52
2023/08/06 06:52:35;;;;;;;8.13;7.23;;;;;;;19.01;65.80;100308.38;5034399;27;96866;-52
2023/08/06 06:55:00;;;;;;;7.60;6.80;;;;;;;19.00;66.25;100311.72;5035089;27;97395;-52
2023/08/06 06:57:26;;;;;;;10.03;8.97;;;;;;;19.02;66.25;100312.66;5032210;27;109419;-52
2023/08/06 06:59:52;;;;;;;9.70;8.17;;;;;;;19.03;66.10;100316.16;5033170;27;97215;-52
2023/08/06 07:02:17;;;;;;;10.77;9.60;;;;;;;19.02;66.01;100312.66;5033455;27;97140;-52
2023/08/06 07:04:42;;;;;;;10.30;9.27;;;;;;;19.03;66.10;100314.13;5033826;27;97263;-52
2023/08/06 07:07:08;;;;;;;11.63;8.97;;;;;;;19.06;66.13;100315.06;5035235;27;98289;-52
2023/08/06 07:09:33;;;;;;;11.03;9.47;;;;;;;19.09;66.27;100311.88;5034659;27;96882;-52
2023/08/06 07:11:58;;;;;;;9.27;8.07;;;;;;;19.13;66.30;100314.31;5031609;27;98402;-52
2023/08/06 07:14:25;;;;;;;10.50;9.40;;;;;;;19.15;66.18;100309.66;5033880;27;97258;-52
2023/08/06 07:16:51;;;;;;;8.60;7.80;;;;;;;19.19;66.25;100318.38;5035359;27;97106;-52
2023/08/06 07:19:16;;;;;;;9.50;8.60;;;;;;;19.21;66.18;100318.56;5034004;27;96652;-52
2023/08/06 07:21:41;;;;;;;9.70;8.70;;;;;;;19.24;66.25;100323.00;5033377;27;97718;-52
2023/08/06 07:24:07;;;;;;;9.80;8.87;;;;;;;19.28;66.19;100317.81;5034678;27;97341;-52
2023/08/06 07:26:32;;;;;;;9.90;9.00;;;;;;;19.30;66.22;100318.00;5033158;27;106989;-52
2023/08/06 07:28:57;;;;;;;10.33;9.30;;;;;;;19.37;66.40;100311.66;5033152;27;96889;-52
2023/08/06 07:31:23;;;;;;;10.80;9.70;;;;;;;19.41;66.28;100306.47;5033338;27;96975;-52
2023/08/06 07:33:48;;;;;;;10.07;8.87;;;;;;;19.44;66.07;100302.53;5033419;27;97328;-53
2023/08/06 07:36:14;;;;;;;9.30;8.20;;;;;;;19.48;66.05;100296.59;5026107;27;102448;-53
2023/08/06 07:38:40;;;;;;;13.93;8.80;;;;;;;19.44;65.87;100299.00;5029781;27;97150;-53
2023/08/06 07:41:05;;;;;;;8.67;7.90;;;;;;;19.43;66.14;100294.75;5033135;27;96796;-52
2023/08/06 07:43:31;;;;;;;10.87;9.40;;;;;;;19.44;66.02;100294.16;5032412;27;96935;-52
2023/08/06 07:46:00;;;;;;;9.73;8.73;;;;;;;19.49;66.34;100298.06;5032260;27;97045;-52
2023/08/06 07:48:27;;;;;;;9.07;8.17;;;;;;;19.54;66.22;100297.13;5033410;27;97567;-52
2023/08/06 07:50:53;;;;;;;10.53;8.33;;;;;;;19.56;66.21;100294.50;5034400;27;97200;-53
2023/08/06 07:53:20;;;;;;;9.00;7.73;;;;;;;19.61;66.20;100292.81;5031055;27;97292;-52
2023/08/06 07:55:53;;;;;;;10.17;8.33;;;;;;;19.71;66.54;100299.28;5032039;27;97118;-52
2023/08/06 07:58:20;;;;;;;8.67;7.77;;;;;;;19.84;66.41;100297.00;5033176;27;97117;-52
2023/08/06 08:00:45;;;;;;;8.13;7.30;;;;;;;19.97;66.13;100288.38;5031139;27;96726;-52
2023/08/06 08:03:15;;;;;;;8.63;7.87;;;;;;;20.04;66.10;100286.84;5032142;27;96822;-53
2023/08/06 08:05:44;;;;;;;9.67;8.67;;;;;;;20.10;66.26;100290.16;5034460;27;96973;-52
2023/08/06 08:08:09;;;;;;;8.57;7.77;;;;;;;20.15;66.03;100280.81;5031653;27;97185;-53
2023/08/06 08:10:36;;;;;;;8.40;7.60;;;;;;;20.24;66.20;100280.25;5032380;27;97301;-52
2023/08/06 08:13:02;;;;;;;10.97;7.30;;;;;;;20.31;65.95;100287.09;5031058;27;97773;-52
2023/08/06 08:15:32;;;;;;;7.10;6.50;;;;;;;20.36;66.12;100286.84;5033517;27;97469;-52
2023/08/06 08:17:58;;;;;;;7.40;6.73;;;;;;;20.38;66.00;100278.63;5031907;27;98169;-53
2023/08/06 08:20:23;;;;;;;6.97;6.37;;;;;;;20.44;66.13;100279.19;5035430;27;97095;-52
2023/08/06 08:22:49;;;;;;;6.57;6.07;;;;;;;20.51;66.03;100277.63;5029522;27;97365;-52
2023/08/06 08:25:16;;;;;;;7.87;6.23;;;;;;;20.60;66.20;100285.38;5029550;27;97555;-52
2023/08/06 08:27:41;;;;;;;7.37;6.10;;;;;;;20.64;66.09;100283.66;5033692;27;97351;-52
2023/08/06 08:30:07;;;;;;;6.80;6.30;;;;;;;20.68;66.26;100278.44;5033354;27;97435;-52
2023/08/06 08:32:32;;;;;;;10.37;7.03;;;;;;;20.73;66.02;100277.44;5031977;27;97458;-52
2023/08/06 08:34:58;;;;;;;6.90;5.97;;;;;;;20.76;65.88;100272.75;5030985;27;108492;-52
2023/08/06 08:37:24;;;;;;;6.73;6.20;;;;;;;20.80;66.04;100273.84;5031731;27;97725;-53
2023/08/06 08:39:50;;;;;;;6.50;6.00;;;;;;;20.87;65.89;100267.44;5032369;27;97092;-52
2023/08/06 08:42:15;;;;;;;7.00;6.40;;;;;;;20.93;65.81;100262.34;5031547;27;97373;-52
2023/08/06 08:44:42;;;;;;;7.47;6.77;;;;;;;20.99;65.83;100261.38;5033842;27;97166;-52
2023/08/06 08:47:10;;;;;;;7.60;6.90;;;;;;;21.06;65.68;100258.50;5034416;27;97095;-53
2023/08/06 08:49:36;;;;;;;6.60;6.03;;;;;;;21.14;65.45;100258.44;5032404;27;97478;-53
2023/08/06 08:52:06;;;;;;;7.20;6.50;;;;;;;21.18;65.23;100264.34;5036641;27;97365;-53
2023/08/06 08:54:32;;;;;;;6.67;6.07;;;;;;;21.22;65.33;100262.63;5034394;27;96675;-53
2023/08/06 08:56:58;;;;;;;7.00;6.30;;;;;;;21.29;65.59;100261.81;5037070;27;96706;-52
2023/08/06 08:59:23;;;;;;;7.23;6.57;;;;;;;21.35;65.09;100261.56;5035806;27;97324;-53
2023/08/06 09:01:51;;;;;;;6.40;5.90;;;;;;;21.37;65.05;100254.06;5035185;27;97168;-52
2023/08/06 09:04:17;;;;;;;6.97;6.30;;;;;;;21.49;65.26;100257.09;5036408;27;96781;-53
2023/08/06 09:06:50;;;;;;;5.53;5.13;;;;;;;21.55;64.98;100246.38;5035565;27;97209;-54
2023/08/06 09:09:37;;;;;;;5.67;5.17;;;;;;;21.52;64.94;100248.28;5037600;27;96771;-53
2023/08/06 09:12:15;;;;;;;5.57;5.17;;;;;;;21.61;64.88;100252.47;5036304;27;97171;-55
2023/08/06 09:14:41;;;;;;;4.80;4.40;;;;;;;21.71;64.91;100258.84;5034155;27;96753;-53
2023/08/06 09:17:07;;;;;;;4.97;4.60;;;;;;;21.80;64.72;100249.78;5036154;27;97443;-53
2023/08/06 09:19:33;;;;;;;4.90;4.50;;;;;;;21.84;64.38;100244.53;5027777;27;97227;-53
2023/08/06 09:21:58;;;;;;;4.00;3.70;;;;;;;21.92;64.41;100247.97;5033836;27;100066;-52
2023/08/06 09:24:24;;;;;;;4.10;3.80;;;;;;;21.98;63.93;100245.66;5034832;27;97231;-53
2023/08/06 09:26:50;;;;;;;4.20;3.90;;;;;;;22.04;63.71;100251.72;5033133;27;96761;-55
2023/08/06 09:29:15;;;;;;;4.07;3.70;;;;;;;22.09;63.43;100256.31;5033802;27;96933;-53
2023/08/06 09:31:45;;;;;;;3.43;3.23;;;;;;;22.17;62.70;100248.53;5034526;27;97960;-53
2023/08/06 09:34:15;;;;;;;3.50;3.30;;;;;;;22.25;63.06;100243.56;5035547;27;97128;-52
2023/08/06 09:36:42;;;;;;;3.33;3.13;;;;;;;22.31;63.25;100246.84;5037408;27;97157;-54
2023/08/06 09:39:18;;;;;;;3.17;2.97;;;;;;;22.42;62.75;100247.59;5035909;27;97000;-53
2023/08/06 09:41:44;;;;;;;3.50;3.30;;;;;;;22.43;62.68;100246.28;5033108;27;96922;-54
2023/08/06 09:44:21;;;;;;;3.20;3.00;;;;;;;22.47;62.72;100243.78;5034008;27;97739;-53
2023/08/06 09:46:54;;;;;;;3.00;2.70;;;;;;;22.58;62.99;100246.03;5035448;27;97541;-54
2023/08/06 09:49:21;;;;;;;2.80;2.60;;;;;;;22.73;62.63;100246.56;5034826;27;97103;-53
2023/08/06 09:51:50;;;;;;;2.97;2.77;;;;;;;22.78;62.26;100241.97;5033190;27;97397;-55
2023/08/06 09:54:16;;;;;;;3.00;2.80;;;;;;;22.77;62.75;100237.69;5036173;27;97156;-53
2023/08/06 09:56:42;;;;;;;3.23;3.03;;;;;;;22.83;62.69;100238.88;5027907;27;97621;-55
2023/08/06 09:59:08;;;;;;;3.27;2.97;;;;;;;22.91;62.37;100238.75;5036122;27;97163;-53
2023/08/06 10:01:35;;;;;;;3.87;3.57;;;;;;;22.90;62.10;100243.63;5036303;27;98233;-54
2023/08/06 10:04:05;;;;;;;3.00;2.70;;;;;;;22.88;61.38;100237.13;5034128;27;97211;-53
2023/08/06 10:06:34;;;;;;;3.00;2.80;;;;;;;22.88;61.08;100240.66;5032709;27;97078;-53
2023/08/06 10:09:00;;;;;;;2.50;2.30;;;;;;;22.94;60.79;100240.38;5028409;27;98344;-54
2023/08/06 10:11:28;;;;;;;2.40;2.20;;;;;;;22.95;60.78;100231.38;5033488;27;97950;-53
2023/08/06 10:14:00;;;;;;;2.03;1.90;;;;;;;22.98;60.67;100235.78;5037996;27;99216;-53
2023/08/06 10:16:26;;;;;;;2.90;2.70;;;;;;;23.07;61.60;100235.06;5036586;27;97068;-53
2023/08/06 10:18:53;;;;;;;2.20;2.10;;;;;;;23.15;61.04;100231.38;5033986;27;97535;-53
2023/08/06 10:21:18;;;;;;;2.80;2.60;;;;;;;23.24;61.30;100225.75;5033462;27;97808;-55
2023/08/06 10:23:43;;;;;;;2.23;2.10;;;;;;;23.33;60.84;100227.84;5037241;27;97049;-53
2023/08/06 10:26:09;;;;;;;3.17;2.97;;;;;;;23.44;60.76;100227.25;5034196;27;97408;-54
2023/08/06 10:28:38;;;;;;;2.33;2.17;;;;;;;23.54;60.01;100219.56;5033312;27;97255;-55
2023/08/06 10:31:06;;;;;;;2.83;2.63;;;;;;;23.62;60.04;100213.78;5034392;27;97838;-54
2023/08/06 10:33:43;;;;;;;2.73;2.53;;;;;;;23.64;57.68;100211.84;5034976;27;97938;-53
2023/08/06 10:36:11;;;;;;;1.93;1.83;;;;;;;23.66;59.28;100206.38;5036505;27;96653;-53
2023/08/06 10:38:49;;;;;;;2.60;2.50;;;;;;;23.67;58.18;100215.53;5030710;27;97745;-53
2023/08/06 10:41:23;;;;;;;2.40;2.30;;;;;;;23.56;58.93;100207.72;5029961;27;97548;-53
2023/08/06 10:43:48;;;;;;;2.27;2.17;;;;;;;23.41;58.86;100208.06;5031746;27;97243;-53
2023/08/06 10:46:27;;;;;;;2.80;2.10;;;;;;;23.33;58.11;100211.00;5035957;27;96988;-53
2023/08/06 10:48:52;;;;;;;2.23;2.13;;;;;;;23.37;58.94;100210.56;5035865;27;97234;-53
2023/08/06 10:51:18;;;;;;;2.50;2.30;;;;;;;23.43;59.01;100208.94;5033180;27;96733;-53
2023/08/06 10:53:46;;;;;;;2.50;2.40;;;;;;;23.43;59.08;100206.13;5032482;27;108560;-53
2023/08/06 10:56:18;;;;;;;2.70;2.50;;;;;;;23.55;58.11;100200.63;5033153;27;97199;-53
2023/08/06 10:58:45;;;;;;;2.23;2.13;;;;;;;23.68;58.62;100194.53;5035684;27;97202;-53
2023/08/06 11:01:11;;;;;;;2.40;2.20;;;;;;;23.84;59.05;100185.19;5032382;27;97359;-53
2023/08/06 11:03:37;;;;;;;2.90;2.70;;;;;;;23.95;57.60;100178.19;5033109;27;97137;-53
2023/08/06 11:06:03;;;;;;;1.60;1.50;;;;;;;24.06;57.54;100185.28;5031792;27;96935;-53
2023/08/06 11:08:34;;;;;;;1.70;1.60;;;;;;;24.21;56.73;100176.47;5036764;27;96908;-53
2023/08/06 11:11:13;;;;;;;3.07;1.93;;;;;;;24.22;56.35;100180.78;5033312;27;97596;-53
2023/08/06 11:13:44;;;;;;;1.60;1.50;;;;;;;24.30;56.54;100170.81;5033505;27;97351;-53
2023/08/06 11:16:10;;;;;;;2.00;1.90;;;;;;;24.34;56.67;100182.31;5032312;27;97117;-53
2023/08/06 11:18:36;;;;;;;1.93;1.83;;;;;;;24.36;56.61;100176.84;5031313;27;96785;-55
2023/08/06 11:21:02;;;;;;;2.20;1.73;;;;;;;24.28;56.21;100186.81;5033757;27;97734;-54